createdAt,value
2022-10-08T09:03:15.420Z,100483.41
2022-10-08T09:05:47.197Z,100486.94
2022-10-08T09:08:20.486Z,100503.84
2022-10-08T09:10:55.604Z,100493.25
2022-10-08T09:13:28.070Z,100488.03
2022-10-08T09:15:57.302Z,100488.91
2022-10-08T09:18:27.165Z,100480.44
2022-10-08T09:20:55.574Z,100493.03
2022-10-08T09:23:26.761Z,100485.13
2022-10-08T09:26:00.228Z,100491.38
2022-10-08T09:28:46.977Z,100478.63
2022-10-08T09:31:25.847Z,100481.34
2022-10-08T09:34:04.668Z,100476.13
2022-10-08T09:36:39.238Z,100488.72
2022-10-08T09:39:18.507Z,100496.56
2022-10-08T09:41:49.585Z,100495.56
2022-10-08T09:44:21.957Z,100494.59
2022-10-08T09:47:05.416Z,100489.31
2022-10-08T09:49:38.353Z,100493.19
2022-10-08T09:52:17.208Z,100495.69
2022-10-08T09:54:49.381Z,100489.13
2022-10-08T09:57:20.613Z,100494.53
2022-10-08T09:59:53.536Z,100499.19
2022-10-08T10:02:34.138Z,100496.59
2022-10-08T10:05:06.476Z,100507.13
2022-10-08T10:07:41.618Z,100499.19
2022-10-08T10:10:33.399Z,100501.91
2022-10-08T10:13:12.494Z,100508.38
2022-10-08T10:15:59.613Z,100499.88
2022-10-08T10:18:39.982Z,100509.78
2022-10-08T10:21:17.088Z,100524.53
2022-10-08T10:24:01.639Z,100507.19
2022-10-08T10:26:35.575Z,100514.94
2022-10-08T10:29:10.555Z,100514.47
2022-10-08T10:31:44.143Z,100515.00
2022-10-08T10:34:17.142Z,100505.16
2022-10-08T10:36:52.831Z,100511.03
2022-10-08T10:39:32.993Z,100518.53
2022-10-08T10:42:12.152Z,100518.53
2022-10-08T10:44:53.460Z,100512.72
2022-10-08T10:47:27.127Z,100522.09
2022-10-08T10:50:00.021Z,100512.44
2022-10-08T10:52:49.885Z,100510.03
2022-10-08T10:55:27.006Z,100521.25
2022-10-08T10:58:23.280Z,100522.09
2022-10-08T11:01:04.069Z,100529.84
2022-10-08T11:03:41.733Z,100522.41
2022-10-08T11:06:41.801Z,100512.22
2022-10-08T11:09:22.721Z,100525.88
2022-10-08T11:11:56.095Z,100514.94
2022-10-08T11:14:42.536Z,100522.41
2022-10-08T11:17:31.166Z,100524.25
2022-10-08T11:20:22.458Z,100505.31
2022-10-08T11:23:01.856Z,100528.59
2022-10-08T11:26:02.773Z,100536.13
2022-10-08T11:28:37.411Z,100531.34
2022-10-08T11:31:16.504Z,100528.97
2022-10-08T11:33:47.284Z,100514.56
2022-10-08T11:36:23.491Z,100526.56
2022-10-08T11:38:58.126Z,100531.44
2022-10-08T11:41:36.094Z,100510.84
2022-10-08T11:44:08.880Z,100531.50
2022-10-08T11:46:37.834Z,100532.31
2022-10-08T11:49:55.246Z,100542.19
2022-10-08T11:52:29.985Z,100543.53
2022-10-08T11:55:01.054Z,100535.28
2022-10-08T11:58:26.535Z,100531.00
2022-10-08T12:06:10.274Z,100536.34
2022-10-08T12:09:00.568Z,100545.41
2022-10-08T12:13:23.322Z,100544.84
2022-10-08T12:16:33.378Z,100533.91
2022-10-08T12:19:43.370Z,100533.66
2022-10-08T12:23:32.111Z,100537.94
2022-10-08T12:27:33.528Z,100537.69
2022-10-08T12:30:46.980Z,100517.69
2022-10-08T12:33:42.054Z,100536.44
2022-10-08T12:36:22.794Z,100531.97
2022-10-08T12:42:25.093Z,100529.03
2022-10-08T12:45:31.676Z,100533.88
2022-10-08T12:48:17.431Z,100530.16
2022-10-08T12:51:08.076Z,100537.66
2022-10-08T12:53:41.404Z,100525.94
2022-10-08T12:56:18.013Z,100539.03
2022-10-08T12:58:55.755Z,100527.34
2022-10-08T13:01:26.275Z,100525.19
2022-10-08T13:04:27.828Z,100532.41
2022-10-08T13:06:58.105Z,100523.88
2022-10-08T13:09:35.974Z,100533.78
2022-10-08T13:12:13.884Z,100526.56
2022-10-08T13:15:01.373Z,100539.44
2022-10-08T13:17:39.797Z,100528.16
2022-10-08T13:20:18.017Z,100508.94
2022-10-08T13:23:51.582Z,100527.63
2022-10-08T13:26:54.984Z,100510.78
2022-10-08T13:29:49.064Z,100535.88
2022-10-08T13:33:57.659Z,100528.94
2022-10-08T13:36:02.778Z,100550.63
2022-10-08T13:38:51.833Z,100537.28
2022-10-08T13:42:28.605Z,100528.47
2022-10-08T13:45:06.525Z,100527.72
2022-10-08T13:47:37.854Z,100555.56
2022-10-08T13:50:55.072Z,100542.19
2022-10-08T13:53:29.072Z,100548.09
2022-10-08T13:56:33.024Z,100540.88
2022-10-08T13:59:31.006Z,100557.47
2022-10-08T14:03:11.049Z,100532.63
2022-10-08T14:05:26.711Z,100538.25
2022-10-08T14:08:25.936Z,100547.38
2022-10-08T14:11:02.839Z,100523.81
2022-10-08T14:13:49.313Z,100543.13
2022-10-08T14:16:45.986Z,100547.41
2022-10-08T14:19:36.836Z,100543.69
2022-10-08T14:22:38.953Z,100548.19
2022-10-08T14:29:07.204Z,100540.75
2022-10-08T14:31:44.212Z,100544.28
2022-10-08T14:34:56.346Z,100533.81
2022-10-08T14:37:39.626Z,100549.06
2022-10-08T14:41:07.171Z,100535.38
2022-10-08T14:44:12.215Z,100549.06
2022-10-08T14:46:49.049Z,100522.56
2022-10-08T14:51:36.192Z,100535.13
2022-10-08T14:53:34.094Z,100537.56
2022-10-08T14:57:15.091Z,100537.25
2022-10-08T15:01:03.446Z,100530.31
2022-10-08T15:03:59.212Z,100534.03
2022-10-08T15:11:12.615Z,100537.75
2022-10-08T15:13:41.023Z,100516.06
2022-10-08T15:16:12.867Z,100528.38
2022-10-08T15:18:41.301Z,100526.25
2022-10-08T15:21:12.077Z,100523.03
2022-10-08T15:23:40.486Z,100528.13
2022-10-08T15:26:14.777Z,100528.38
2022-10-08T15:28:46.033Z,100530.25
2022-10-08T15:31:17.544Z,100532.13
2022-10-08T15:33:48.090Z,100532.63
2022-10-08T15:36:23.839Z,100542.53
2022-10-08T15:38:58.406Z,100524.59
2022-10-08T15:41:28.698Z,100543.31
2022-10-08T15:43:57.791Z,100532.34
2022-10-08T15:46:29.016Z,100539.00
2022-10-08T15:48:58.544Z,100534.97
2022-10-08T15:51:28.551Z,100538.97
2022-10-08T15:53:57.050Z,100541.63
2022-10-08T15:56:25.482Z,100541.34
2022-10-08T15:58:54.074Z,100544.81
2022-10-08T16:01:24.478Z,100550.66
2022-10-08T16:03:55.660Z,100548.25
2022-10-08T16:06:26.109Z,100545.84
2022-10-08T16:08:58.228Z,100549.03
2022-10-08T16:11:29.105Z,100545.78
2022-10-08T16:14:01.975Z,100543.63
2022-10-08T16:16:31.089Z,100556.69
2022-10-08T16:19:01.485Z,100557.19
2022-10-08T16:21:32.149Z,100582.56
2022-10-08T16:24:03.085Z,100564.34
2022-10-08T16:26:33.823Z,100570.47
2022-10-08T16:29:04.982Z,100573.38
2022-10-08T16:31:37.113Z,100581.31
2022-10-08T16:34:08.644Z,100580.44
2022-10-08T16:36:37.572Z,100583.31
2022-10-08T16:39:08.690Z,100588.34
2022-10-08T16:41:38.730Z,100594.44
2022-10-08T16:44:12.603Z,100600.28
2022-10-08T16:46:43.778Z,100596.50
2022-10-08T16:49:22.800Z,100600.72
2022-10-08T16:51:54.054Z,100614.34
2022-10-08T16:54:23.965Z,100610.78
2022-10-08T16:56:52.562Z,100622.53
2022-10-08T16:59:23.720Z,100634.78
2022-10-08T17:01:55.686Z,100625.63
2022-10-08T17:04:27.757Z,100631.69
2022-10-08T17:06:56.374Z,100637.31
2022-10-08T17:09:26.210Z,100661.81
2022-10-08T17:11:54.638Z,100624.91
2022-10-08T17:14:23.182Z,100668.97
2022-10-08T17:16:52.229Z,100646.72
2022-10-08T17:19:20.860Z,100661.13
2022-10-08T17:21:49.337Z,100661.03
2022-10-08T17:24:17.956Z,100671.38
2022-10-08T17:26:50.128Z,100672.13
2022-10-08T17:29:18.525Z,100672.59
2022-10-08T17:31:47.051Z,100692.00
2022-10-08T17:34:15.565Z,100683.66
2022-10-08T17:36:44.503Z,100665.47
2022-10-08T17:39:14.983Z,100691.03
2022-10-08T17:41:44.591Z,100702.44
2022-10-08T17:44:14.819Z,100674.38
2022-10-08T17:46:46.159Z,100699.91
2022-10-08T17:49:16.243Z,100700.41
2022-10-08T17:51:44.910Z,100719.53
2022-10-08T17:54:16.447Z,100717.84
2022-10-08T17:56:45.106Z,100717.75
2022-10-08T17:59:16.611Z,100723.81
2022-10-08T18:01:46.041Z,100721.88
2022-10-08T18:04:16.779Z,100719.91
2022-10-08T18:06:47.544Z,100735.56
2022-10-08T18:09:18.603Z,100744.28
2022-10-08T18:11:49.485Z,100738.63
2022-10-08T18:14:19.919Z,100740.72
2022-10-08T18:16:48.977Z,100738.53
2022-10-08T18:19:18.089Z,100742.94
2022-10-08T18:21:46.693Z,100747.94
2022-10-08T18:24:15.671Z,100747.59
2022-10-08T18:26:44.528Z,100755.84
2022-10-08T18:29:14.791Z,100759.78
2022-10-08T18:31:46.664Z,100764.75
2022-10-08T18:34:17.801Z,100763.34
2022-10-08T18:36:47.047Z,100762.00
2022-10-08T18:39:18.008Z,100766.19
2022-10-08T18:41:48.682Z,100779.97
2022-10-08T18:44:19.885Z,100777.16
2022-10-08T18:46:50.048Z,100782.16
2022-10-08T18:49:20.111Z,100787.72
2022-10-08T18:51:50.740Z,100785.53
2022-10-08T18:54:19.436Z,100783.31
2022-10-08T18:56:47.811Z,100789.13
2022-10-08T18:59:18.178Z,100792.50
2022-10-08T19:01:49.970Z,100793.19
2022-10-08T19:04:21.107Z,100793.91
2022-10-08T19:06:52.265Z,100799.44
2022-10-08T19:09:21.265Z,100805.00
2022-10-08T19:11:52.547Z,100807.53
2022-10-08T19:14:23.761Z,100806.97
2022-10-08T19:16:53.721Z,100812.75
2022-10-08T19:19:24.726Z,100826.28
2022-10-08T19:21:54.425Z,100819.25
2022-10-08T19:24:24.997Z,100813.31
2022-10-08T19:26:54.724Z,100821.78
2022-10-08T19:29:25.498Z,100825.72
2022-10-08T19:31:55.323Z,100840.53
2022-10-08T19:34:27.352Z,100847.94
2022-10-08T19:36:55.946Z,100845.97
2022-10-08T19:39:27.584Z,100845.59
2022-10-08T19:41:56.190Z,100850.13
2022-10-08T19:44:24.763Z,100859.56
2022-10-08T19:46:54.734Z,100842.41
2022-10-08T19:49:23.445Z,100847.97
2022-10-08T19:51:51.885Z,100856.41
2022-10-08T19:54:20.277Z,100859.50
2022-10-08T19:56:48.798Z,100866.69
2022-10-08T19:59:17.665Z,100865.53
2022-10-08T20:01:46.273Z,100872.09
2022-10-08T20:04:16.907Z,100875.81
2022-10-08T20:06:45.525Z,100872.53
2022-10-08T20:09:15.511Z,100869.53
2022-10-08T20:11:46.587Z,100870.81
2022-10-08T20:14:15.995Z,100886.16
2022-10-08T20:16:45.154Z,100887.66
2022-10-08T20:19:20.710Z,100890.31
2022-10-08T20:21:50.632Z,100863.34
2022-10-08T20:24:20.316Z,100880.56
2022-10-08T20:26:49.455Z,100883.47
2022-10-08T20:29:20.403Z,100885.75
2022-10-08T20:31:54.063Z,100891.31
2022-10-08T20:34:27.051Z,100889.91
2022-10-08T20:36:57.958Z,100881.78
2022-10-08T20:39:26.328Z,100883.06
2022-10-08T20:41:54.676Z,100882.44
2022-10-08T20:44:23.337Z,100887.19
2022-10-08T20:46:52.764Z,100884.97
2022-10-08T20:49:21.171Z,100895.00
2022-10-08T20:51:50.882Z,100896.06
2022-10-08T20:54:19.295Z,100871.97
2022-10-08T20:56:47.715Z,100900.63
2022-10-08T20:59:19.269Z,100905.34
2022-10-08T21:01:48.262Z,100879.00
2022-10-08T21:04:16.949Z,100904.16
2022-10-08T21:06:47.634Z,100908.91
2022-10-08T21:09:21.280Z,100902.41
2022-10-08T21:11:49.964Z,100902.84
